Time;durP1;ratioP1;P1;durP2;ratioP2;P2;SDS_P1;SDS_P2;PMS_P1;PMS_P2;Temp;Humidity;BMP_temperature;BMP_pressure;BME280_temperature;BME280_humidity;BME280_pressure;Samples;Min_cycle;Max_cycle;Signal;HPM_P1;HPM_P2
2023/01/23 00:00:01;;;;;;;14.03;6.53;;;;;;;3.60;100.00;103614.78;5005509;28;20852;-76
2023/01/23 00:02:26;;;;;;;21.13;9.83;;;;;;;3.57;100.00;103610.34;5022243;28;20572;-75
2023/01/23 00:04:51;;;;;;;10.93;5.67;;;;;;;3.58;100.00;103609.56;5007121;28;20191;-76
2023/01/23 00:07:17;;;;;;;11.63;6.23;;;;;;;3.56;100.00;103615.25;5003864;28;20209;-76
2023/01/23 00:09:42;;;;;;;6.37;4.23;;;;;;;3.56;100.00;103611.09;4998941;28;20661;-75
2023/01/23 00:12:08;;;;;;;5.47;3.60;;;;;;;3.54;100.00;103615.09;5001173;28;20286;-75
2023/01/23 00:14:33;;;;;;;8.10;4.07;;;;;;;3.56;100.00;103621.22;4998873;28;20235;-75
2023/01/23 00:16:59;;;;;;;9.37;3.77;;;;;;;3.56;100.00;103615.25;5005928;28;20195;-75
2023/01/23 00:19:24;;;;;;;5.70;3.20;;;;;;;3.56;100.00;103610.19;5001968;28;20642;-75
2023/01/23 00:21:49;;;;;;;4.83;2.93;;;;;;;3.54;100.00;103621.84;5005030;28;20195;-76
2023/01/23 00:24:15;;;;;;;5.83;3.60;;;;;;;3.52;100.00;103620.78;5004139;28;20223;-74
2023/01/23 00:26:40;;;;;;;5.33;3.73;;;;;;;3.51;100.00;103621.53;5008525;28;20198;-74
2023/01/23 00:29:06;;;;;;;6.90;4.17;;;;;;;3.50;100.00;103627.38;5007799;28;20601;-75
2023/01/23 00:31:37;;;;;;;5.63;3.80;;;;;;;3.49;100.00;103623.94;5000779;28;20211;-77
2023/01/23 00:34:06;;;;;;;4.90;3.53;;;;;;;3.47;100.00;103635.56;5005178;28;20237;-76
2023/01/23 00:36:35;;;;;;;6.10;3.33;;;;;;;3.47;100.00;103632.13;5005553;28;20191;-75
2023/01/23 00:39:03;;;;;;;6.17;3.40;;;;;;;3.47;100.00;103629.59;5003440;28;20662;-75
2023/01/23 00:41:28;;;;;;;4.77;3.33;;;;;;;3.46;100.00;103633.81;4999662;28;20821;-76
2023/01/23 00:43:54;;;;;;;5.13;3.37;;;;;;;3.46;100.00;103637.97;5002177;28;20238;-75
2023/01/23 00:46:20;;;;;;;5.37;3.60;;;;;;;3.44;100.00;103645.41;5003821;28;20644;-75
2023/01/23 00:48:46;;;;;;;6.70;3.73;;;;;;;3.44;100.00;103645.41;5005462;28;20277;-76
2023/01/23 00:51:12;;;;;;;6.60;4.00;;;;;;;3.44;100.00;103642.88;5003073;28;20215;-75
2023/01/23 00:53:38;;;;;;;6.63;3.83;;;;;;;3.45;100.00;103651.38;5006064;28;20280;-75
2023/01/23 00:56:03;;;;;;;4.83;3.73;;;;;;;3.46;100.00;103646.47;5004198;28;20214;-75
2023/01/23 00:58:30;;;;;;;4.80;3.50;;;;;;;3.47;100.00;103649.84;5001382;28;20242;-76
2023/01/23 01:00:55;;;;;;;6.90;3.00;;;;;;;3.45;100.00;103643.78;4999469;28;20254;-75
2023/01/23 01:03:23;;;;;;;3.97;3.20;;;;;;;3.41;100.00;103649.31;5006898;28;20211;-75
2023/01/23 01:05:49;;;;;;;5.07;3.63;;;;;;;3.43;100.00;103645.25;5000968;28;20196;-76
2023/01/23 01:08:15;;;;;;;3.93;3.13;;;;;;;3.41;100.00;103660.31;5008932;28;20852;-75
2023/01/23 01:10:41;;;;;;;6.33;3.33;;;;;;;3.42;100.00;103657.06;5003657;28;20214;-75
2023/01/23 01:13:08;;;;;;;7.57;4.10;;;;;;;3.43;100.00;103666.41;5000134;28;20760;-76
2023/01/23 01:15:33;;;;;;;9.13;3.90;;;;;;;3.43;100.00;103665.50;5008007;28;20187;-75
2023/01/23 01:17:58;;;;;;;5.30;3.07;;;;;;;3.43;100.00;103670.59;5005771;28;22215;-76
2023/01/23 01:20:26;;;;;;;4.70;2.87;;;;;;;3.43;100.00;103668.94;5012012;28;20533;-76
2023/01/23 01:22:53;;;;;;;4.87;3.20;;;;;;;3.43;100.00;103679.09;5014815;28;20786;-75
2023/01/23 01:25:19;;;;;;;4.53;3.57;;;;;;;3.43;100.00;103675.66;5005363;28;20206;-76
2023/01/23 01:27:44;;;;;;;4.13;3.07;;;;;;;3.43;100.00;103678.19;5008062;28;20223;-75
2023/01/23 01:30:12;;;;;;;6.03;3.27;;;;;;;3.41;100.00;103672.97;5000183;28;20266;-76
2023/01/23 01:32:39;;;;;;;3.40;2.90;;;;;;;3.42;100.00;103671.34;5006634;28;20208;-76
2023/01/23 01:35:06;;;;;;;5.43;3.13;;;;;;;3.42;100.00;103668.81;5011300;28;20209;-75
2023/01/23 01:37:33;;;;;;;7.00;3.60;;;;;;;3.41;100.00;103672.97;5007471;28;20199;-75
2023/01/23 01:39:59;;;;;;;6.23;3.10;;;;;;;3.41;100.00;103670.44;5010804;28;20202;-76
2023/01/23 01:42:27;;;;;;;6.20;3.30;;;;;;;3.43;100.00;103681.63;5020189;28;20274;-76
2023/01/23 01:44:54;;;;;;;4.60;2.87;;;;;;;3.41;100.00;103677.16;5011692;28;20195;-75
2023/01/23 01:47:20;;;;;;;4.93;3.30;;;;;;;3.40;100.00;103683.84;5005862;28;20299;-75
2023/01/23 01:49:45;;;;;;;5.83;3.53;;;;;;;3.39;100.00;103689.66;5009302;28;20755;-75
2023/01/23 01:52:13;;;;;;;3.93;3.10;;;;;;;3.40;100.00;103693.97;5011401;28;20548;-74
2023/01/23 01:54:44;;;;;;;5.00;2.90;;;;;;;3.40;100.00;103688.91;5012251;28;20684;-74
2023/01/23 01:57:19;;;;;;;4.73;3.20;;;;;;;3.42;100.00;103691.59;5009588;28;20194;-74
2023/01/23 01:59:51;;;;;;;5.77;3.27;;;;;;;3.43;100.00;103693.38;5007655;28;20196;-76
2023/01/23 02:02:36;;;;;;;4.07;3.13;;;;;;;3.40;100.00;103695.63;5013814;28;20198;-75
2023/01/23 02:05:06;;;;;;;5.77;2.80;;;;;;;3.40;100.00;103698.16;5010640;28;20206;-75
2023/01/23 02:07:34;;;;;;;3.50;2.90;;;;;;;3.40;100.00;103693.09;5007522;28;20210;-74
2023/01/23 02:10:03;;;;;;;5.33;3.10;;;;;;;3.38;100.00;103700.56;5025720;28;20218;-75
2023/01/23 02:12:30;;;;;;;5.67;3.47;;;;;;;3.38;100.00;103690.44;5002738;28;20222;-74
2023/01/23 02:14:57;;;;;;;4.10;3.20;;;;;;;3.36;100.00;103696.09;5010126;28;20191;-74
2023/01/23 02:17:22;;;;;;;7.83;3.30;;;;;;;3.37;100.00;103695.34;5021755;28;20745;-74
2023/01/23 02:20:23;;;;;;;3.90;2.57;;;;;;;3.36;100.00;103694.44;5008199;28;20194;-76
2023/01/23 02:22:49;;;;;;;5.97;3.30;;;;;;;3.36;100.00;103698.63;5004691;28;20770;-78
2023/01/23 02:25:15;;;;;;;5.97;3.23;;;;;;;3.36;100.00;103699.50;5000075;28;20199;-77
2023/01/23 02:27:42;;;;;;;6.13;3.30;;;;;;;3.35;100.00;103705.31;5007338;28;20656;-77
2023/01/23 02:30:09;;;;;;;5.37;3.40;;;;;;;3.31;100.00;103708.31;4999489;28;20215;-77
2023/01/23 02:32:35;;;;;;;5.63;3.20;;;;;;;3.33;100.00;103714.44;5006185;28;20192;-76
2023/01/23 02:35:09;;;;;;;7.33;3.33;;;;;;;3.31;100.00;103713.38;5006551;28;20221;-77
2023/01/23 02:37:38;;;;;;;4.23;3.23;;;;;;;3.27;100.00;103718.88;5015159;28;20281;-77
2023/01/23 02:40:05;;;;;;;5.63;3.10;;;;;;;3.28;100.00;103713.09;5001547;28;20194;-77
2023/01/23 02:42:33;;;;;;;3.87;3.07;;;;;;;3.29;100.00;103716.50;5000156;28;20282;-76
2023/01/23 02:44:59;;;;;;;6.13;3.00;;;;;;;3.29;100.00;103719.94;5009341;28;20309;-77
2023/01/23 02:47:25;;;;;;;8.27;3.40;;;;;;;3.29;100.00;103721.56;5010464;28;20241;-77
2023/01/23 02:49:54;;;;;;;5.60;3.10;;;;;;;3.26;100.00;103713.72;5001630;28;20609;-77
2023/01/23 02:52:22;;;;;;;4.87;3.10;;;;;;;3.27;100.00;103716.34;5006744;28;20205;-77
2023/01/23 02:54:48;;;;;;;6.07;3.23;;;;;;;3.29;100.00;103709.81;4986761;28;20214;-77
2023/01/23 02:57:14;;;;;;;5.03;3.07;;;;;;;3.31;100.00;103709.97;5011503;28;20914;-77
2023/01/23 03:02:24;;;;;;;5.90;3.30;;;;;;;3.29;100.00;103713.97;5004504;28;20234;-77
2023/01/23 03:04:50;;;;;;;5.87;3.23;;;;;;;3.27;100.00;103718.88;5002627;28;20222;-77
2023/01/23 03:07:15;;;;;;;5.07;2.97;;;;;;;3.30;100.00;103713.22;5005099;28;20860;-76
2023/01/23 03:09:42;;;;;;;4.90;2.90;;;;;;;3.30;100.00;103705.63;5008772;28;20214;-76
2023/01/23 03:12:08;;;;;;;3.57;2.83;;;;;;;3.28;100.00;103704.59;5013419;28;20211;-76
2023/01/23 03:14:33;;;;;;;5.17;3.13;;;;;;;3.26;100.00;103699.38;5010629;28;20264;-76
2023/01/23 03:16:59;;;;;;;4.10;3.10;;;;;;;3.27;100.00;103701.16;5008042;28;21852;-77
2023/01/23 03:19:30;;;;;;;3.77;2.93;;;;;;;3.26;100.00;103690.94;5012171;28;20196;-76
2023/01/23 03:21:55;;;;;;;5.13;3.10;;;;;;;3.27;100.00;103703.69;5010939;28;20641;-76
2023/01/23 03:24:21;;;;;;;5.27;2.90;;;;;;;3.27;100.00;103701.16;5000336;28;20266;-78
2023/01/23 03:26:47;;;;;;;5.63;2.90;;;;;;;3.26;100.00;103699.38;5019732;28;20195;-76
2023/01/23 03:32:05;;;;;;;4.67;3.10;;;;;;;3.27;100.00;103700.28;5007942;28;20271;-78
2023/01/23 03:34:31;;;;;;;3.33;2.90;;;;;;;3.27;100.00;103691.03;5009016;28;20293;-77
2023/01/23 03:36:59;;;;;;;5.70;3.40;;;;;;;3.30;100.00;103690.44;5011976;28;20191;-77
2023/01/23 03:42:09;;;;;;;5.53;3.43;;;;;;;3.29;100.00;103703.84;5011880;28;20298;-77
2023/01/23 03:44:35;;;;;;;4.77;3.13;;;;;;;3.25;100.00;103702.69;5017147;28;20214;-78
2023/01/23 03:47:01;;;;;;;7.27;4.00;;;;;;;3.25;100.00;103707.75;5014044;28;20197;-78
2023/01/23 03:49:26;;;;;;;4.23;3.30;;;;;;;3.26;100.00;103701.03;5010482;28;20265;-78
2023/01/23 03:51:57;;;;;;;5.03;3.33;;;;;;;3.24;100.00;103703.44;5011472;28;20214;-78
2023/01/23 03:54:23;;;;;;;4.87;3.27;;;;;;;3.24;100.00;103705.06;5011032;28;20246;-77
2023/01/23 03:56:49;;;;;;;5.40;3.83;;;;;;;3.25;100.00;103696.72;5012642;28;20206;-78
2023/01/23 03:59:35;;;;;;;4.83;3.90;;;;;;;3.23;100.00;103705.81;5011722;28;20238;-78
2023/01/23 04:02:03;;;;;;;6.83;3.83;;;;;;;3.22;100.00;103707.44;5010254;28;20220;-78
2023/01/23 04:04:30;;;;;;;6.77;3.83;;;;;;;3.23;100.00;103715.94;5003389;28;20219;-78
2023/01/23 04:06:56;;;;;;;8.03;4.67;;;;;;;3.23;100.00;103715.94;5024120;28;20192;-77
2023/01/23 04:09:26;;;;;;;4.83;3.80;;;;;;;3.24;100.00;103718.63;5013103;28;20254;-77
2023/01/23 04:11:54;;;;;;;7.53;4.77;;;;;;;3.26;100.00;103731.44;5028430;28;20680;-76
2023/01/23 04:14:21;;;;;;;6.70;4.60;;;;;;;3.26;100.00;103734.81;4994738;28;20812;-77
2023/01/23 04:16:46;;;;;;;6.50;4.23;;;;;;;3.26;100.00;103733.97;5015229;28;20535;-77
2023/01/23 04:19:12;;;;;;;5.33;4.07;;;;;;;3.27;100.00;103739.13;5007750;28;20233;-77
2023/01/23 04:21:38;;;;;;;8.00;4.50;;;;;;;3.29;100.00;103731.69;5012732;28;20194;-76
2023/01/23 04:24:03;;;;;;;6.40;4.23;;;;;;;3.28;100.00;103740.03;5009258;28;20879;-76
2023/01/23 04:26:29;;;;;;;7.43;5.17;;;;;;;3.29;100.00;103740.19;5007989;28;20210;-77
2023/01/23 04:28:54;;;;;;;5.33;4.53;;;;;;;3.28;100.00;103745.09;5017069;28;20202;-77
2023/01/23 04:31:20;;;;;;;5.40;4.70;;;;;;;3.28;100.00;103750.16;5007898;28;20733;-77
2023/01/23 04:33:45;;;;;;;6.97;3.87;;;;;;;3.26;100.00;103742.41;5010252;28;20222;-77
2023/01/23 04:36:12;;;;;;;6.43;4.70;;;;;;;3.28;100.00;103747.63;5016782;28;20197;-77
2023/01/23 04:38:37;;;;;;;10.83;5.10;;;;;;;3.28;100.00;103743.47;5007437;28;20192;-77
2023/01/23 04:41:24;;;;;;;6.73;4.30;;;;;;;3.28;100.00;103747.63;5005527;28;20194;-77
2023/01/23 04:44:18;;;;;;;5.63;4.17;;;;;;;3.27;100.00;103743.31;5013045;28;20211;-76
2023/01/23 04:46:42;;;;;;;7.47;4.67;;;;;;;3.30;100.00;103746.13;5011573;28;20191;-76
2023/01/23 04:49:12;;;;;;;6.83;4.90;;;;;;;3.30;100.00;103741.97;5006810;28;20260;-76
2023/01/23 04:51:38;;;;;;;7.30;4.10;;;;;;;3.29;100.00;103742.72;5005121;28;20211;-77
2023/01/23 04:54:03;;;;;;;7.57;4.90;;;;;;;3.28;100.00;103745.09;5027380;28;20309;-77
2023/01/23 04:56:29;;;;;;;8.90;4.80;;;;;;;3.26;100.00;103755.09;5000977;28;20224;-76
2023/01/23 04:58:56;;;;;;;6.67;4.67;;;;;;;3.24;100.00;103756.59;5009003;28;20287;-77
2023/01/23 05:01:22;;;;;;;8.07;4.87;;;;;;;3.26;100.00;103752.56;5007862;28;20299;-77
2023/01/23 05:03:50;;;;;;;6.80;4.90;;;;;;;3.26;100.00;103756.75;5013130;28;20219;-77
2023/01/23 05:06:16;;;;;;;7.33;5.17;;;;;;;3.23;100.00;103757.34;5010461;28;20718;-77
2023/01/23 05:08:42;;;;;;;8.20;5.33;;;;;;;3.23;100.00;103762.41;5009352;28;20191;-77
2023/01/23 05:11:23;;;;;;;5.97;4.67;;;;;;;3.26;100.00;103760.16;5010360;28;20672;-77
2023/01/23 05:13:49;;;;;;;7.93;5.03;;;;;;;3.24;100.00;103764.19;5021711;28;20281;-76
2023/01/23 05:16:14;;;;;;;9.10;6.37;;;;;;;3.21;100.00;103762.97;5024827;28;20258;-77
2023/01/23 05:19:06;;;;;;;45.53;28.30;;;;;;;3.20;100.00;103767.16;5012695;28;20925;-77
2023/01/23 05:21:32;;;;;;;27.57;15.67;;;;;;;3.20;100.00;103771.31;5019232;28;20241;-76
2023/01/23 05:23:58;;;;;;;16.37;12.33;;;;;;;3.18;100.00;103767.78;5026903;28;20864;-77
2023/01/23 05:26:23;;;;;;;12.30;10.97;;;;;;;3.16;100.00;103770.16;5006204;28;20558;-77
2023/01/23 05:28:49;;;;;;;8.27;6.70;;;;;;;3.17;100.00;103774.44;5022677;28;20204;-77
2023/01/23 05:31:14;;;;;;;8.97;5.93;;;;;;;3.18;100.00;103773.69;5015544;28;20218;-77
2023/01/23 05:33:48;;;;;;;7.60;5.23;;;;;;;3.17;100.00;103781.19;4992517;28;20858;-76
2023/01/23 05:36:14;;;;;;;7.07;4.27;;;;;;;3.19;100.00;103785.63;4992399;28;20201;-77
2023/01/23 05:38:39;;;;;;;6.90;4.43;;;;;;;3.19;100.00;103784.72;5010205;28;20657;-77
2023/01/23 05:41:06;;;;;;;6.80;4.50;;;;;;;3.18;100.00;103788.88;5014706;28;20197;-77
2023/01/23 05:43:54;;;;;;;6.57;4.93;;;;;;;3.16;100.00;103790.41;5021156;28;20222;-76
2023/01/23 05:46:46;;;;;;;8.00;4.93;;;;;;;3.16;100.00;103792.03;5008429;28;20211;-76
2023/01/23 05:49:12;;;;;;;6.40;4.53;;;;;;;3.18;100.00;103799.00;5012061;28;20730;-77
2023/01/23 05:51:38;;;;;;;9.30;5.07;;;;;;;3.21;100.00;103796.78;5003929;28;20219;-76
2023/01/23 05:54:05;;;;;;;12.03;7.23;;;;;;;3.21;100.00;103811.06;5009051;28;20272;-77
2023/01/23 05:56:31;;;;;;;7.33;5.47;;;;;;;3.21;100.00;103817.03;5008603;28;20202;-77
2023/01/23 05:59:15;;;;;;;6.70;4.83;;;;;;;3.20;100.00;103812.72;5007279;28;20214;-76
2023/01/23 06:01:46;;;;;;;7.07;4.47;;;;;;;3.21;100.00;103818.66;5026225;28;20187;-78
2023/01/23 06:04:49;;;;;;;7.10;4.90;;;;;;;3.18;100.00;103814.19;5010304;28;20198;-78
2023/01/23 06:07:25;;;;;;;6.37;4.97;;;;;;;3.22;100.00;103818.81;5021800;28;20194;-77
2023/01/23 06:09:54;;;;;;;6.97;4.50;;;;;;;3.21;100.00;103822.09;5008904;28;20615;-77
2023/01/23 06:12:20;;;;;;;7.60;5.00;;;;;;;3.21;100.00;103818.66;5013620;28;20237;-77
2023/01/23 06:14:47;;;;;;;9.67;5.53;;;;;;;3.21;100.00;103826.25;5014399;28;22149;-78
2023/01/23 06:17:13;;;;;;;9.27;6.30;;;;;;;3.19;100.00;103826.13;5003158;28;20258;-77
2023/01/23 06:19:38;;;;;;;10.00;6.23;;;;;;;3.18;100.00;103825.97;5005332;28;20816;-77
2023/01/23 06:22:04;;;;;;;7.67;6.67;;;;;;;3.20;100.00;103830.44;4998421;28;20190;-76
2023/01/23 06:24:37;;;;;;;8.70;5.80;;;;;;;3.20;100.00;103834.59;5006469;28;20595;-76
2023/01/23 06:27:07;;;;;;;8.57;6.07;;;;;;;3.17;100.00;103830.13;5025214;28;20245;-77
2023/01/23 06:29:36;;;;;;;7.70;5.57;;;;;;;3.18;100.00;103826.84;5010187;28;20602;-76
2023/01/23 06:32:02;;;;;;;8.60;6.20;;;;;;;3.15;100.00;103831.66;4997459;28;20218;-76
2023/01/23 06:34:28;;;;;;;45.03;25.70;;;;;;;3.14;100.00;103837.47;5020580;28;20211;-77
2023/01/23 06:36:56;;;;;;;42.33;28.13;;;;;;;3.13;100.00;103833.13;5027242;28;20191;-75
2023/01/23 06:39:22;;;;;;;41.07;27.50;;;;;;;3.13;100.00;103835.66;5026338;28;20635;-77
2023/01/23 06:41:49;;;;;;;20.37;14.57;;;;;;;3.14;100.00;103837.47;5006428;28;20202;-78
2023/01/23 06:44:21;;;;;;;25.70;15.80;;;;;;;3.12;100.00;103838.94;5005198;28;20310;-78
2023/01/23 06:46:47;;;;;;;17.87;12.30;;;;;;;3.12;100.00;103838.94;5022008;28;20398;-77
2023/01/23 06:49:12;;;;;;;15.67;9.37;;;;;;;3.14;100.00;103844.16;5004255;28;20198;-77
2023/01/23 06:51:37;;;;;;;9.73;6.73;;;;;;;3.15;100.00;103841.78;5011622;28;20260;-77
2023/01/23 06:54:05;;;;;;;7.73;6.60;;;;;;;3.13;100.00;103853.38;5022870;28;20615;-77
2023/01/23 06:56:31;;;;;;;9.80;6.53;;;;;;;3.15;100.00;103853.50;5006631;28;20197;-77
2023/01/23 06:58:59;;;;;;;9.53;6.47;;;;;;;3.13;100.00;103855.03;5000715;28;20294;-77
2023/01/23 07:01:29;;;;;;;8.80;5.53;;;;;;;3.15;100.00;103859.50;5009510;28;20197;-77
2023/01/23 07:04:03;;;;;;;7.07;4.80;;;;;;;3.15;100.00;103862.03;5016658;28;20245;-77
2023/01/23 07:06:30;;;;;;;8.10;6.53;;;;;;;3.13;100.00;103860.97;4997316;28;20214;-77
2023/01/23 07:08:56;;;;;;;12.67;10.33;;;;;;;3.14;100.00;103866.94;5014519;28;20786;-76
2023/01/23 07:11:21;;;;;;;10.23;7.40;;;;;;;3.15;100.00;103861.13;5014938;28;20214;-77
2023/01/23 07:13:46;;;;;;;14.43;11.13;;;;;;;3.09;100.00;103863.94;5012880;28;20239;-77
2023/01/23 07:16:14;;;;;;;7.83;6.70;;;;;;;3.10;100.00;103862.31;5007689;28;20214;-76
2023/01/23 07:18:39;;;;;;;8.80;6.63;;;;;;;3.08;100.00;103862.16;5006125;28;20668;-77
2023/01/23 07:21:07;;;;;;;11.40;8.73;;;;;;;3.05;100.00;103866.03;5014306;28;20269;-76
2023/01/23 07:23:34;;;;;;;7.93;6.37;;;;;;;3.08;100.00;103872.28;5016455;28;20645;-76
2023/01/23 07:26:01;;;;;;;7.43;5.73;;;;;;;3.10;100.00;103878.41;5018950;28;20190;-77
2023/01/23 07:28:26;;;;;;;8.40;5.33;;;;;;;3.10;100.00;103874.97;5011557;28;20661;-77
2023/01/23 07:30:52;;;;;;;7.33;5.30;;;;;;;3.14;100.00;103890.63;5009881;28;20219;-77
2023/01/23 07:33:17;;;;;;;7.23;5.30;;;;;;;3.15;100.00;103886.41;5009277;28;20218;-78
2023/01/23 07:35:43;;;;;;;9.03;5.20;;;;;;;3.17;100.00;103890.00;5014075;28;20278;-79
2023/01/23 07:38:08;;;;;;;7.13;5.47;;;;;;;3.19;100.00;103891.94;5008398;28;20206;-77
2023/01/23 07:40:34;;;;;;;8.50;6.43;;;;;;;3.20;100.00;103902.94;5008582;28;20194;-76
2023/01/23 07:42:59;;;;;;;10.87;6.27;;;;;;;3.18;100.00;103900.25;5014288;28;20718;-77
2023/01/23 07:45:25;;;;;;;9.63;5.60;;;;;;;3.19;100.00;103896.09;5018761;28;20190;-76
2023/01/23 07:47:50;;;;;;;9.20;6.27;;;;;;;3.20;100.00;103897.88;5013423;28;20271;-77
2023/01/23 07:50:16;;;;;;;9.90;6.50;;;;;;;3.21;100.00;103895.50;5014092;28;20300;-77
2023/01/23 07:52:41;;;;;;;11.83;7.90;;;;;;;3.21;100.00;103899.66;5000798;28;20562;-78
2023/01/23 07:55:07;;;;;;;8.37;7.03;;;;;;;3.21;100.00;103905.63;5017831;28;20190;-77
2023/01/23 07:57:32;;;;;;;11.37;6.70;;;;;;;3.24;100.00;103899.97;5015433;28;20564;-76
2023/01/23 07:59:58;;;;;;;10.60;6.40;;;;;;;3.23;100.00;103900.72;5017861;28;20223;-78
2023/01/23 08:02:24;;;;;;;11.90;6.77;;;;;;;3.24;100.00;103902.50;5020129;28;20210;-78
2023/01/23 08:04:50;;;;;;;10.93;7.13;;;;;;;3.26;100.00;103914.56;5012347;28;20187;-77
2023/01/23 08:07:15;;;;;;;10.30;7.20;;;;;;;3.28;100.00;103905.50;5018453;28;20205;-78
2023/01/23 08:09:40;;;;;;;12.57;7.83;;;;;;;3.30;100.00;103911.59;5016860;28;20197;-77
2023/01/23 08:12:06;;;;;;;10.90;8.13;;;;;;;3.31;100.00;103918.44;5020578;28;20604;-79
2023/01/23 08:14:31;;;;;;;10.50;7.47;;;;;;;3.33;100.00;103913.53;5010244;28;20219;-77
2023/01/23 08:16:57;;;;;;;11.27;7.53;;;;;;;3.36;100.00;103918.91;5012336;28;20195;-77
2023/01/23 08:19:26;;;;;;;11.43;7.87;;;;;;;3.36;100.00;103923.97;5005825;28;20199;-76
2023/01/23 08:21:52;;;;;;;15.73;8.53;;;;;;;3.38;100.00;103925.00;5011699;28;20246;-76
2023/01/23 08:24:17;;;;;;;11.87;7.67;;;;;;;3.39;100.00;103932.75;5014620;28;20218;-77
2023/01/23 08:26:43;;;;;;;13.07;8.93;;;;;;;3.41;100.00;103930.38;5007825;28;20187;-76
2023/01/23 08:29:09;;;;;;;14.30;9.33;;;;;;;3.42;100.00;103937.22;5011936;28;20629;-76
2023/01/23 08:31:35;;;;;;;16.47;9.37;;;;;;;3.42;100.00;103935.59;5011182;28;20250;-77
2023/01/23 08:34:01;;;;;;;14.83;8.83;;;;;;;3.46;100.00;103942.75;5006554;28;20214;-77
2023/01/23 08:36:26;;;;;;;14.27;8.67;;;;;;;3.47;100.00;103942.00;5013214;28;20241;-77
2023/01/23 08:38:52;;;;;;;14.10;9.10;;;;;;;3.50;100.00;103946.47;5010844;28;20257;-73
2023/01/23 08:41:17;;;;;;;14.27;9.17;;;;;;;3.63;100.00;103945.25;5013976;28;20557;-72
2023/01/23 08:43:43;;;;;;;12.63;8.47;;;;;;;3.72;100.00;103951.22;5009391;28;20254;-74
2023/01/23 08:46:09;;;;;;;13.70;9.20;;;;;;;3.75;100.00;103954.03;5017021;28;20865;-77
2023/01/23 08:48:35;;;;;;;15.57;9.00;;;;;;;3.72;100.00;103955.41;5013219;28;20245;-76
2023/01/23 08:51:12;;;;;;;15.73;8.87;;;;;;;3.71;100.00;103951.97;5016546;28;20210;-76
2023/01/23 08:53:38;;;;;;;18.20;9.57;;;;;;;3.67;100.00;103960.00;5005749;28;20234;-75
2023/01/23 08:56:12;;;;;;;14.70;8.77;;;;;;;3.66;100.00;103953.16;5015821;28;20187;-76
2023/01/23 08:58:37;;;;;;;16.93;8.80;;;;;;;3.68;100.00;103958.38;5011377;28;20290;-76
2023/01/23 09:01:03;;;;;;;18.53;9.20;;;;;;;3.68;100.00;103953.31;5014125;28;20274;-76
2023/01/23 09:03:28;;;;;;;14.67;9.30;;;;;;;3.68;100.00;103958.38;5011498;28;20597;-76
2023/01/23 09:05:54;;;;;;;18.40;8.87;;;;;;;3.71;100.00;103946.91;5013008;28;20206;-76
2023/01/23 09:08:19;;;;;;;17.27;8.77;;;;;;;3.72;100.00;103965.53;5013216;28;20881;-76
2023/01/23 09:10:45;;;;;;;13.40;8.23;;;;;;;3.72;100.00;103963.00;5012843;28;20231;-75
2023/01/23 09:13:11;;;;;;;17.77;8.40;;;;;;;3.72;100.00;103951.22;5013644;28;20223;-75
2023/01/23 09:15:38;;;;;;;15.23;8.53;;;;;;;3.73;100.00;103964.78;5010234;28;20198;-75
2023/01/23 09:18:04;;;;;;;16.73;8.60;;;;;;;3.75;100.00;103960.75;5011752;28;20285;-76
2023/01/23 09:20:29;;;;;;;16.97;8.73;;;;;;;3.75;100.00;103953.13;5005888;28;21839;-75
2023/01/23 09:22:54;;;;;;;15.07;8.43;;;;;;;3.77;100.00;103960.16;5012380;28;20211;-75
2023/01/23 09:25:20;;;;;;;16.33;9.00;;;;;;;3.80;100.00;103957.00;5009464;28;20195;-76
2023/01/23 09:27:45;;;;;;;16.73;9.57;;;;;;;3.78;100.00;103958.50;5006091;28;20644;-76
2023/01/23 09:30:11;;;;;;;14.97;8.53;;;;;;;3.82;100.00;103963.13;5008711;28;20242;-76
2023/01/23 09:32:37;;;;;;;15.27;8.90;;;;;;;3.85;100.00;103963.41;5009545;28;20191;-75
2023/01/23 09:35:04;;;;;;;15.30;8.63;;;;;;;3.86;100.00;103965.22;5016248;28;20582;-75
2023/01/23 09:40:18;;;;;;;16.53;9.53;;;;;;;3.92;100.00;103958.19;5015333;28;20206;-77
2023/01/23 09:42:44;;;;;;;14.40;8.40;;;;;;;3.95;100.00;103959.38;5014013;28;20190;-77
2023/01/23 09:45:15;;;;;;;17.43;10.07;;;;;;;3.97;100.00;103960.44;5015640;28;20202;-77
2023/01/23 09:47:55;;;;;;;18.37;10.13;;;;;;;4.01;100.00;103962.50;5010144;28;20195;-77
2023/01/23 09:50:29;;;;;;;19.47;10.40;;;;;;;4.00;100.00;103960.72;5013630;28;20214;-77
2023/01/23 09:53:07;;;;;;;16.23;10.23;;;;;;;3.98;100.00;103957.16;5017331;28;20229;-77
2023/01/23 09:55:51;;;;;;;18.60;10.30;;;;;;;4.02;100.00;103950.72;5007846;28;20292;-78
2023/01/23 09:58:26;;;;;;;17.80;9.87;;;;;;;4.01;100.00;103957.41;5014936;28;20197;-76
2023/01/23 10:00:52;;;;;;;15.63;10.10;;;;;;;4.06;100.00;103958.78;5012547;28;20195;-78
2023/01/23 10:03:18;;;;;;;17.03;9.70;;;;;;;4.06;100.00;103965.47;5009396;28;20719;-76
2023/01/23 10:06:20;;;;;;;15.80;9.67;;;;;;;4.10;100.00;103968.44;5010957;28;20561;-75
2023/01/23 10:08:48;;;;;;;18.27;11.10;;;;;;;4.10;100.00;103970.97;5028062;28;20212;-77
2023/01/23 10:11:29;;;;;;;15.87;10.00;;;;;;;4.13;100.00;103963.66;4981559;28;20239;-76
2023/01/23 10:14:19;;;;;;;20.30;10.50;;;;;;;4.21;100.00;103955.16;4994990;28;20688;-76
2023/01/23 10:17:03;;;;;;;17.23;10.93;;;;;;;4.21;100.00;103954.25;5003031;28;20588;-78
2023/01/23 10:20:05;;;;;;;22.03;10.70;;;;;;;4.24;100.00;103952.88;4999163;28;20194;-76
2023/01/23 10:22:32;;;;;;;18.90;11.83;;;;;;;4.17;100.00;103945.47;5007111;28;20194;-75
2023/01/23 10:25:00;;;;;;;16.40;10.47;;;;;;;4.26;100.00;103947.97;5004759;28;20538;-75
2023/01/23 10:27:37;;;;;;;21.27;10.97;;;;;;;4.32;100.00;103946.03;5014635;28;20252;-75
2023/01/23 10:30:11;;;;;;;17.73;10.83;;;;;;;4.33;100.00;103947.81;5017188;28;20226;-75
2023/01/23 10:32:49;;;;;;;18.00;11.00;;;;;;;4.34;100.00;103942.88;5012340;28;20681;-75
2023/01/23 10:35:21;;;;;;;18.07;10.80;;;;;;;4.36;100.00;103946.44;5006629;28;20253;-74
2023/01/23 10:37:46;;;;;;;20.63;11.50;;;;;;;4.40;100.00;103951.06;5009993;28;20269;-75
2023/01/23 10:40:15;;;;;;;16.23;10.63;;;;;;;4.35;100.00;103943.75;5017961;28;20277;-75
2023/01/23 10:42:42;;;;;;;19.00;10.47;;;;;;;4.36;100.00;103951.50;5014975;28;20199;-76
2023/01/23 10:45:20;;;;;;;18.47;10.97;;;;;;;4.40;100.00;103948.53;5021704;28;20189;-76
2023/01/23 10:47:47;;;;;;;19.90;10.73;;;;;;;4.31;100.00;103955.25;5031365;28;20202;-73
2023/01/23 10:50:14;;;;;;;23.23;12.17;;;;;;;4.39;100.00;103955.97;5016119;28;20210;-73
2023/01/23 10:52:42;;;;;;;21.03;11.87;;;;;;;4.43;100.00;103950.44;5015865;28;20285;-73
2023/01/23 10:55:28;;;;;;;22.13;13.00;;;;;;;4.43;100.00;103953.91;5009788;28;20194;-75
2023/01/23 10:58:02;;;;;;;19.60;11.37;;;;;;;4.44;100.00;103962.38;5026900;28;20191;-76
2023/01/23 11:00:43;;;;;;;19.30;11.93;;;;;;;4.40;100.00;103956.13;5012433;28;20213;-76
2023/01/23 11:03:20;;;;;;;19.17;11.67;;;;;;;4.42;100.00;103957.16;5013701;28;20230;-76
2023/01/23 11:06:15;;;;;;;23.00;12.80;;;;;;;4.40;100.00;103962.84;5007547;28;20183;-77
2023/01/23 11:08:54;;;;;;;20.40;12.30;;;;;;;4.43;100.00;103958.06;5008985;28;20202;-75
2023/01/23 11:11:25;;;;;;;22.90;12.97;;;;;;;4.49;100.00;103961.16;5009024;28;20222;-75
2023/01/23 11:14:15;;;;;;;24.47;11.60;;;;;;;4.42;100.00;103967.31;5012047;28;20615;-76
2023/01/23 11:16:41;;;;;;;22.80;13.03;;;;;;;4.40;100.00;103967.91;5006579;28;20286;-75
2023/01/23 11:19:07;;;;;;;22.80;14.23;;;;;;;4.43;100.00;103976.72;5005992;28;20199;-75
2023/01/23 11:21:57;;;;;;;19.53;12.37;;;;;;;4.46;100.00;103968.50;5025051;28;20195;-76
2023/01/23 11:24:29;;;;;;;19.67;11.50;;;;;;;4.43;100.00;103969.13;5014090;28;20272;-76
2023/01/23 11:26:59;;;;;;;21.90;11.63;;;;;;;4.47;100.00;103967.75;5018978;28;20194;-75
2023/01/23 11:29:27;;;;;;;19.53;11.27;;;;;;;4.38;100.00;103969.41;5017333;28;20207;-76
2023/01/23 11:32:13;;;;;;;22.63;11.70;;;;;;;4.43;100.00;103969.13;5011440;28;20302;-77
2023/01/23 11:35:08;;;;;;;20.70;12.30;;;;;;;4.45;100.00;103969.22;5012672;28;20223;-75
2023/01/23 11:37:37;;;;;;;17.77;12.00;;;;;;;4.50;100.00;103965.47;5006989;28;20221;-77